createdAt,value
2023-04-04T00:00:27.254Z,2.50
2023-04-04T00:02:54.338Z,2.50
2023-04-04T00:05:21.494Z,2.50
2023-04-04T00:07:48.749Z,2.70
2023-04-04T00:10:16.025Z,2.70
2023-04-04T00:12:43.998Z,2.50
2023-04-04T00:15:11.551Z,2.40
2023-04-04T00:17:38.907Z,2.20
2023-04-04T00:20:06.522Z,2.30
2023-04-04T00:22:33.416Z,2.40
2023-04-04T00:25:00.336Z,2.50
2023-04-04T00:27:27.181Z,2.60
2023-04-04T00:29:54.272Z,2.50
2023-04-04T00:32:21.419Z,2.50
2023-04-04T00:34:58.070Z,2.40
2023-04-04T00:37:24.932Z,2.20
2023-04-04T00:39:51.802Z,2.20
2023-04-04T00:42:18.817Z,2.30
2023-04-04T00:44:45.849Z,2.20
2023-04-04T00:47:12.848Z,2.20
2023-04-04T00:49:39.656Z,2.30
2023-04-04T00:52:07.831Z,2.10
2023-04-04T00:54:35.641Z,2.10
2023-04-04T00:57:07.019Z,2.20
2023-04-04T00:59:34.452Z,2.30
2023-04-04T01:02:01.711Z,2.20
2023-04-04T01:04:31.667Z,2.20
2023-04-04T01:06:59.711Z,1.90
2023-04-04T01:09:26.954Z,1.90
2023-04-04T01:11:55.703Z,1.70
2023-04-04T01:14:23.041Z,1.90
2023-04-04T01:16:51.527Z,2.00
2023-04-04T01:20:00.013Z,2.00
2023-04-04T01:22:29.754Z,2.10
2023-04-04T01:24:59.144Z,2.00
2023-04-04T01:27:26.143Z,2.00
2023-04-04T01:29:53.904Z,1.90
2023-04-04T01:32:27.695Z,2.20
2023-04-04T01:35:13.620Z,2.40
2023-04-04T01:38:07.180Z,2.60
2023-04-04T01:40:37.419Z,2.90
2023-04-04T01:43:04.573Z,3.30
2023-04-04T01:45:33.016Z,3.50
2023-04-04T01:47:59.946Z,3.60
2023-04-04T01:50:27.260Z,3.70
2023-04-04T01:52:54.194Z,3.80
2023-04-04T01:55:21.897Z,3.60
2023-04-04T01:57:48.941Z,3.50
2023-04-04T02:00:16.579Z,3.60
2023-04-04T02:02:43.751Z,3.70
2023-04-04T02:05:10.982Z,3.70
2023-04-04T02:07:38.164Z,3.60
2023-04-04T02:10:05.630Z,3.50
2023-04-04T02:12:32.500Z,3.40
2023-04-04T02:15:00.450Z,3.30
2023-04-04T02:17:28.434Z,3.20
2023-04-04T02:19:55.434Z,3.30
2023-04-04T02:22:22.334Z,3.30
2023-04-04T02:24:49.275Z,3.20
2023-04-04T02:27:16.208Z,3.10
2023-04-04T02:29:43.066Z,2.90
2023-04-04T02:32:10.105Z,2.70
2023-04-04T02:34:37.731Z,2.50
2023-04-04T02:37:04.944Z,2.40
2023-04-04T02:39:31.820Z,2.20
2023-04-04T02:41:58.755Z,2.40
2023-04-04T02:44:25.802Z,2.50
2023-04-04T02:46:52.845Z,2.40
2023-04-04T02:49:20.221Z,2.40
2023-04-04T02:51:47.747Z,2.60
2023-04-04T02:54:14.822Z,2.70
2023-04-04T02:56:42.456Z,2.80
2023-04-04T02:59:09.323Z,2.80
2023-04-04T03:01:36.397Z,2.60
2023-04-04T03:04:04.538Z,2.60
2023-04-04T03:06:34.530Z,2.70
2023-04-04T03:09:02.457Z,2.50
2023-04-04T03:11:29.460Z,2.50
2023-04-04T03:13:56.638Z,2.30
2023-04-04T03:16:23.740Z,2.40
2023-04-04T03:18:50.871Z,2.30
2023-04-04T03:21:17.724Z,2.30
2023-04-04T03:23:44.689Z,2.30
2023-04-04T03:26:11.562Z,2.40
2023-04-04T03:28:38.672Z,2.30
2023-04-04T03:31:06.444Z,2.20
2023-04-04T03:33:38.188Z,2.20
2023-04-04T03:36:14.637Z,2.20
2023-04-04T03:38:41.748Z,2.20
2023-04-04T03:41:08.766Z,2.20
2023-04-04T03:43:35.698Z,2.20
2023-04-04T03:46:07.295Z,2.10
2023-04-04T03:48:34.864Z,1.90
2023-04-04T03:51:04.482Z,1.90
2023-04-04T03:53:31.482Z,1.90
2023-04-04T03:55:58.665Z,1.70
2023-04-04T03:58:28.222Z,1.60
2023-04-04T04:00:55.392Z,1.70
2023-04-04T04:03:22.506Z,1.60
2023-04-04T04:05:49.546Z,1.60
2023-04-04T04:08:16.606Z,1.60
2023-04-04T04:10:43.521Z,1.70
2023-04-04T04:13:10.610Z,1.70
2023-04-04T04:15:37.980Z,1.60
2023-04-04T04:18:05.695Z,1.60
2023-04-04T04:20:32.600Z,1.60
2023-04-04T04:22:59.574Z,1.50
2023-04-04T04:25:26.573Z,1.50
2023-04-04T04:27:59.203Z,1.50
2023-04-04T04:30:26.459Z,1.40
2023-04-04T04:32:53.576Z,1.20
2023-04-04T04:35:20.641Z,1.10
2023-04-04T04:37:47.635Z,1.20
2023-04-04T04:40:15.009Z,1.30
2023-04-04T04:42:51.993Z,1.20
2023-04-04T04:45:20.312Z,1.10
2023-04-04T04:47:47.167Z,1.20
2023-04-04T04:50:14.168Z,1.20
2023-04-04T04:52:41.569Z,1.20
2023-04-04T04:55:08.829Z,1.10
2023-04-04T04:57:35.725Z,1.10
2023-04-04T05:00:04.513Z,1.10
2023-04-04T05:02:31.571Z,1.00
2023-04-04T05:04:58.677Z,0.90
2023-04-04T05:07:25.557Z,1.00
2023-04-04T05:09:52.606Z,1.10
2023-04-04T05:12:19.613Z,1.00
2023-04-04T05:14:46.581Z,1.10
2023-04-04T05:17:13.485Z,1.10
2023-04-04T05:19:40.613Z,1.10
2023-04-04T05:22:08.214Z,1.10
2023-04-04T05:24:35.284Z,1.30
2023-04-04T05:27:02.286Z,1.20
2023-04-04T05:29:29.263Z,1.20
2023-04-04T05:31:56.457Z,1.30
2023-04-04T05:34:23.471Z,1.40
2023-04-04T05:36:50.721Z,1.60
2023-04-04T05:39:17.568Z,1.60
2023-04-04T05:41:44.571Z,1.40
2023-04-04T05:44:11.585Z,1.50
2023-04-04T05:46:38.629Z,1.70
2023-04-04T05:49:05.915Z,1.80
2023-04-04T05:51:32.819Z,1.60
2023-04-04T05:53:59.692Z,1.60
2023-04-04T05:56:26.680Z,1.50
2023-04-04T05:58:53.705Z,1.60
2023-04-04T06:01:20.637Z,1.50
2023-04-04T06:03:47.600Z,1.50
2023-04-04T06:06:14.754Z,1.50
2023-04-04T06:08:53.012Z,1.50
2023-04-04T06:11:22.654Z,1.50
2023-04-04T06:13:51.166Z,1.60
2023-04-04T06:16:18.132Z,1.60
2023-04-04T06:18:45.103Z,1.70
2023-04-04T06:21:13.318Z,1.90
2023-04-04T06:23:41.002Z,2.40
2023-04-04T06:26:08.431Z,2.90
2023-04-04T06:28:35.447Z,3.40
2023-04-04T06:31:05.312Z,3.80
2023-04-04T06:33:32.234Z,3.90
2023-04-04T06:35:59.256Z,4.20
2023-04-04T06:38:27.391Z,4.50
2023-04-04T06:40:54.373Z,4.70
2023-04-04T06:43:21.714Z,4.90
2023-04-04T06:45:49.636Z,4.80
2023-04-04T06:48:16.956Z,5.20
2023-04-04T06:50:43.883Z,6.10
2023-04-04T06:53:10.845Z,6.80
2023-04-04T06:55:37.799Z,6.40
2023-04-04T06:58:04.789Z,6.50
2023-04-04T07:00:31.789Z,7.60
2023-04-04T07:02:59.966Z,9.30
2023-04-04T07:05:27.780Z,10.40
2023-04-04T07:07:56.343Z,10.90
2023-04-04T07:10:24.513Z,11.00
2023-04-04T07:12:51.813Z,10.80
2023-04-04T07:15:18.832Z,11.00
2023-04-04T07:17:45.736Z,10.30
2023-04-04T07:20:13.411Z,10.90
2023-04-04T07:22:41.157Z,11.50
2023-04-04T07:25:08.883Z,12.50
2023-04-04T07:27:36.520Z,12.10
2023-04-04T07:30:04.666Z,11.30
2023-04-04T07:32:31.948Z,11.60
2023-04-04T07:34:58.934Z,12.80
2023-04-04T07:37:28.606Z,14.10
2023-04-04T07:39:55.794Z,13.90
2023-04-04T07:42:25.673Z,15.20
2023-04-04T07:44:52.743Z,16.20
2023-04-04T07:47:20.631Z,16.40
2023-04-04T07:49:47.643Z,19.40
2023-04-04T07:52:14.513Z,20.90
2023-04-04T07:54:41.465Z,22.70
2023-04-04T07:57:09.965Z,23.90
2023-04-04T07:59:37.862Z,25.10
2023-04-04T08:02:04.884Z,25.60
2023-04-04T08:04:31.955Z,26.50
2023-04-04T08:06:58.999Z,27.90
2023-04-04T08:09:26.057Z,27.60
2023-04-04T08:11:52.993Z,27.70
2023-04-04T08:14:21.341Z,28.70
2023-04-04T08:16:48.273Z,27.80
2023-04-04T08:19:16.638Z,27.40
2023-04-04T08:21:44.583Z,27.80
2023-04-04T08:24:12.980Z,29.20
2023-04-04T08:26:39.858Z,29.60
2023-04-04T08:29:07.513Z,28.20
2023-04-04T08:31:34.962Z,28.00
2023-04-04T08:34:02.582Z,28.60
2023-04-04T08:36:30.357Z,28.70
2023-04-04T08:38:57.288Z,28.70
2023-04-04T08:41:25.234Z,28.50
2023-04-04T08:43:56.862Z,29.50
2023-04-04T08:46:25.754Z,30.30
2023-04-04T08:48:54.497Z,29.50
2023-04-04T08:51:22.772Z,29.10
2023-04-04T08:53:50.272Z,28.30
2023-04-04T08:56:17.382Z,26.90
2023-04-04T08:58:44.577Z,26.00
2023-04-04T09:01:12.280Z,25.20
2023-04-04T09:03:40.689Z,22.80
2023-04-04T09:06:08.341Z,23.70
2023-04-04T09:08:35.518Z,25.80
2023-04-04T09:11:06.032Z,26.10
2023-04-04T09:13:33.020Z,25.20
2023-04-04T09:16:00.746Z,25.60
2023-04-04T09:18:28.104Z,26.60
2023-04-04T09:20:55.042Z,27.60
2023-04-04T09:23:23.639Z,26.70
2023-04-04T09:26:03.207Z,23.80
2023-04-04T09:28:32.530Z,23.10
2023-04-04T09:31:05.554Z,21.70
2023-04-04T09:33:33.709Z,21.30
2023-04-04T09:36:11.271Z,21.90
2023-04-04T09:38:45.446Z,23.80
2023-04-04T09:41:16.097Z,22.70
2023-04-04T09:43:45.570Z,21.80
2023-04-04T09:46:12.752Z,21.40
2023-04-04T09:48:39.753Z,20.20
2023-04-04T09:51:07.760Z,18.60
2023-04-04T09:53:37.432Z,16.80
2023-04-04T09:56:04.898Z,16.30
2023-04-04T09:58:36.072Z,15.60
2023-04-04T10:01:04.663Z,14.60
2023-04-04T10:03:31.701Z,13.00
2023-04-04T10:06:06.966Z,12.10
2023-04-04T10:08:35.618Z,12.00
2023-04-04T10:11:11.768Z,11.60
2023-04-04T10:13:46.680Z,11.10
2023-04-04T10:16:14.073Z,10.90
2023-04-04T10:18:41.036Z,10.70
2023-04-04T10:23:41.310Z,11.20
2023-04-04T10:26:08.260Z,10.70
2023-04-04T10:28:35.314Z,10.60
2023-04-04T10:31:24.277Z,10.70
2023-04-04T10:34:14.694Z,10.80
2023-04-04T10:36:51.355Z,10.80
2023-04-04T10:39:29.533Z,11.00
2023-04-04T10:41:56.971Z,11.00
2023-04-04T10:44:34.038Z,11.10
2023-04-04T10:47:17.657Z,11.20
2023-04-04T10:49:45.839Z,11.10
2023-04-04T10:52:17.328Z,11.00
2023-04-04T10:54:45.460Z,11.10
2023-04-04T10:57:14.226Z,11.30
2023-04-04T11:00:02.508Z,11.30
2023-04-04T11:02:59.565Z,11.20
2023-04-04T11:05:49.258Z,11.40
2023-04-04T11:08:22.256Z,11.30
2023-04-04T11:10:50.501Z,11.30
2023-04-04T11:13:18.411Z,11.30
2023-04-04T11:16:03.979Z,11.20
2023-04-04T11:18:43.502Z,11.50
2023-04-04T11:21:13.968Z,11.60
2023-04-04T11:23:50.268Z,11.70
2023-04-04T11:26:28.052Z,12.00
2023-04-04T11:29:03.695Z,12.00
2023-04-04T11:31:50.797Z,11.80
2023-04-04T11:34:31.861Z,11.90
2023-04-04T11:37:01.896Z,11.60
2023-04-04T11:39:31.034Z,11.50
2023-04-04T11:42:14.456Z,11.70
2023-04-04T11:44:54.897Z,11.90
2023-04-04T11:47:24.323Z,12.00
2023-04-04T11:49:53.475Z,11.90
2023-04-04T11:52:21.294Z,11.90
2023-04-04T11:54:49.127Z,11.60
2023-04-04T11:57:21.244Z,11.70
2023-04-04T11:59:50.791Z,11.90
2023-04-04T12:02:24.833Z,12.10
2023-04-04T12:04:52.577Z,11.90
2023-04-04T12:07:20.100Z,12.00
2023-04-04T12:09:48.106Z,12.20
2023-04-04T12:12:18.458Z,12.30
2023-04-04T12:14:46.060Z,12.10
2023-04-04T12:17:14.406Z,12.10
2023-04-04T12:19:41.518Z,12.00
2023-04-04T12:22:08.819Z,12.00
2023-04-04T12:24:39.129Z,12.10
2023-04-04T12:27:06.788Z,12.20
2023-04-04T12:29:37.595Z,12.30
2023-04-04T12:32:06.156Z,12.30
2023-04-04T12:34:34.340Z,12.40
2023-04-04T12:37:02.725Z,12.30
2023-04-04T12:39:30.298Z,12.40
2023-04-04T12:42:03.585Z,12.10
2023-04-04T12:44:36.667Z,12.10
2023-04-04T12:47:08.410Z,11.90
2023-04-04T12:49:41.507Z,12.00
2023-04-04T12:52:17.487Z,12.10
2023-04-04T12:54:46.936Z,12.20
2023-04-04T12:57:24.035Z,12.10
2023-04-04T12:59:53.739Z,12.10
2023-04-04T13:02:22.967Z,12.00
2023-04-04T13:04:57.631Z,12.30
2023-04-04T13:07:32.440Z,12.30
2023-04-04T13:10:05.597Z,12.30
2023-04-04T13:12:58.617Z,12.20
2023-04-04T13:15:50.681Z,12.20
2023-04-04T13:18:23.687Z,12.00
2023-04-04T13:20:52.513Z,12.00
2023-04-04T13:23:20.060Z,12.10
2023-04-04T13:25:49.537Z,12.10
2023-04-04T13:28:16.838Z,12.30
2023-04-04T13:30:48.965Z,12.10
2023-04-04T13:33:17.156Z,12.00
2023-04-04T13:35:44.841Z,12.00
2023-04-04T13:38:12.312Z,11.90
2023-04-04T13:40:39.491Z,11.90
2023-04-04T13:43:06.915Z,11.90
2023-04-04T13:45:35.088Z,12.00
2023-04-04T13:48:02.907Z,12.00
2023-04-04T13:50:32.974Z,12.10
2023-04-04T13:52:59.872Z,12.20
2023-04-04T13:55:27.768Z,12.30
2023-04-04T13:57:54.770Z,12.30
2023-04-04T14:00:22.440Z,12.30
2023-04-04T14:02:53.006Z,12.50
2023-04-04T14:05:22.372Z,12.50
2023-04-04T14:07:49.540Z,12.30
2023-04-04T14:10:17.069Z,12.20
2023-04-04T14:12:44.184Z,12.30
2023-04-04T14:15:12.286Z,12.40
2023-04-04T14:17:39.490Z,12.40
2023-04-04T14:20:07.967Z,12.40
2023-04-04T14:22:35.004Z,12.20
2023-04-04T14:25:02.176Z,12.20
2023-04-04T14:27:29.064Z,12.20
2023-04-04T14:29:55.977Z,12.10
2023-04-04T14:32:22.933Z,12.00
2023-04-04T14:34:49.901Z,12.10
2023-04-04T14:37:17.498Z,12.00
2023-04-04T14:39:47.317Z,11.90
2023-04-04T14:42:14.310Z,11.90
2023-04-04T14:44:42.198Z,11.90
2023-04-04T14:47:09.603Z,12.20
2023-04-04T14:49:36.680Z,12.20
2023-04-04T14:52:03.812Z,12.20
2023-04-04T14:54:30.871Z,12.40
2023-04-04T14:56:58.099Z,12.40
2023-04-04T14:59:25.089Z,12.20
2023-04-04T15:01:52.128Z,12.10
2023-04-04T15:04:19.071Z,12.10
2023-04-04T15:06:46.499Z,12.10
2023-04-04T15:09:13.474Z,12.10
2023-04-04T15:11:40.465Z,12.20
2023-04-04T15:14:07.888Z,12.10
2023-04-04T15:16:35.942Z,12.20
2023-04-04T15:19:03.009Z,12.00
2023-04-04T15:21:30.041Z,12.10
2023-04-04T15:23:57.177Z,11.90
2023-04-04T15:26:24.145Z,12.00
2023-04-04T15:28:51.170Z,12.00
2023-04-04T15:31:18.167Z,12.00
2023-04-04T15:33:45.090Z,12.10
2023-04-04T15:36:12.124Z,12.10
2023-04-04T15:38:40.161Z,11.90
2023-04-04T15:41:10.536Z,11.90
2023-04-04T15:43:37.567Z,11.90
2023-04-04T15:46:04.941Z,11.90
2023-04-04T15:48:32.457Z,12.00
2023-04-04T15:51:02.631Z,11.90
2023-04-04T15:53:30.961Z,11.80
2023-04-04T15:55:58.715Z,11.70
2023-04-04T15:58:26.446Z,11.80
2023-04-04T16:00:54.095Z,11.70
2023-04-04T16:03:21.540Z,11.70
2023-04-04T16:05:48.559Z,11.70
2023-04-04T16:08:15.531Z,11.60
2023-04-04T16:10:44.162Z,11.60
2023-04-04T16:13:13.200Z,11.70
2023-04-04T16:15:40.257Z,11.70
2023-04-04T16:18:07.527Z,11.70
2023-04-04T16:20:34.967Z,11.60
2023-04-04T16:23:02.025Z,11.60
2023-04-04T16:25:29.125Z,11.50
2023-04-04T16:27:56.081Z,11.50
2023-04-04T16:30:23.159Z,11.40
2023-04-04T16:32:50.979Z,11.30
2023-04-04T16:35:18.031Z,11.20
2023-04-04T16:37:44.993Z,11.00
2023-04-04T16:40:14.002Z,11.00
2023-04-04T16:42:42.198Z,11.10
2023-04-04T16:45:09.802Z,11.00
2023-04-04T16:47:37.067Z,10.90
2023-04-04T16:50:06.108Z,11.00
2023-04-04T16:52:33.158Z,11.00
2023-04-04T16:55:00.304Z,10.80
2023-04-04T16:57:27.369Z,10.90
2023-04-04T16:59:54.385Z,10.90
2023-04-04T17:02:21.434Z,10.90
2023-04-04T17:04:51.222Z,10.70
2023-04-04T17:07:19.564Z,10.70
2023-04-04T17:09:48.192Z,10.70
2023-04-04T17:12:16.382Z,10.70
2023-04-04T17:14:44.253Z,10.70
2023-04-04T17:17:11.515Z,10.60
2023-04-04T17:19:38.881Z,10.50
2023-04-04T17:22:06.040Z,10.50
2023-04-04T17:24:33.326Z,10.40
2023-04-04T17:27:02.412Z,10.30
2023-04-04T17:29:29.487Z,10.20
2023-04-04T17:31:57.104Z,10.20
2023-04-04T17:34:24.565Z,10.10
2023-04-04T17:36:55.040Z,10.10
2023-04-04T17:39:22.241Z,10.10
2023-04-04T17:41:49.540Z,10.10
2023-04-04T17:44:17.708Z,10.00
2023-04-04T17:46:47.861Z,10.00
2023-04-04T17:49:20.232Z,9.90
2023-04-04T17:51:48.859Z,9.70
2023-04-04T17:54:16.296Z,9.60
2023-04-04T17:56:47.242Z,9.60
2023-04-04T17:59:15.025Z,9.60
2023-04-04T18:01:42.195Z,9.60
2023-04-04T18:04:09.588Z,9.40
2023-04-04T18:06:40.133Z,9.40
2023-04-04T18:09:08.706Z,9.40
2023-04-04T18:11:36.901Z,9.40
2023-04-04T18:14:04.296Z,9.30
2023-04-04T18:16:38.893Z,9.30
2023-04-04T18:19:07.123Z,9.10
2023-04-04T18:21:34.079Z,9.10
2023-04-04T18:24:01.535Z,9.10
2023-04-04T18:26:28.796Z,9.00
2023-04-04T18:28:55.922Z,8.70
2023-04-04T18:31:22.935Z,8.60
2023-04-04T18:33:50.065Z,8.60
2023-04-04T18:36:17.204Z,8.40
2023-04-04T18:38:45.460Z,8.30
2023-04-04T18:41:12.496Z,8.10
2023-04-04T18:43:39.495Z,8.10
2023-04-04T18:46:06.831Z,8.00
2023-04-04T18:48:34.248Z,7.90
2023-04-04T18:51:01.855Z,7.80
2023-04-04T18:53:29.513Z,7.60
2023-04-04T18:55:57.732Z,7.50
2023-04-04T18:58:26.087Z,7.40
2023-04-04T19:00:54.548Z,7.30
2023-04-04T19:03:25.299Z,7.10
2023-04-04T19:05:53.237Z,7.10
2023-04-04T19:08:20.579Z,7.00
2023-04-04T19:10:50.997Z,7.00
2023-04-04T19:13:18.593Z,6.90
2023-04-04T19:15:45.748Z,6.90
2023-04-04T19:18:12.849Z,6.80
2023-04-04T19:20:42.226Z,6.60
2023-04-04T19:23:09.475Z,6.60
2023-04-04T19:25:36.444Z,6.40
2023-04-04T19:28:03.562Z,6.40
2023-04-04T19:30:49.505Z,6.30
2023-04-04T19:33:18.709Z,6.40
2023-04-04T19:35:59.805Z,6.50
2023-04-04T19:38:29.389Z,6.30
2023-04-04T19:41:01.504Z,6.30
2023-04-04T19:43:29.694Z,6.30
2023-04-04T19:45:59.098Z,6.40
2023-04-04T19:48:56.296Z,6.30
2023-04-04T19:51:23.216Z,6.30
2023-04-04T19:53:57.797Z,6.30
2023-04-04T19:56:29.923Z,6.30
2023-04-04T19:58:58.884Z,6.20
2023-04-04T20:01:28.153Z,6.10
2023-04-04T20:03:56.530Z,6.10
2023-04-04T20:06:28.873Z,6.20
2023-04-04T20:08:57.550Z,6.20
2023-04-04T20:11:33.124Z,6.20
2023-04-04T20:14:08.028Z,6.30
2023-04-04T20:16:35.710Z,6.40
2023-04-04T20:19:06.578Z,6.50
2023-04-04T20:21:35.688Z,6.70
2023-04-04T20:24:05.556Z,6.80
2023-04-04T20:26:38.074Z,6.90
2023-04-04T20:29:09.736Z,7.10
2023-04-04T20:31:43.303Z,7.10
2023-04-04T20:34:32.984Z,7.20
2023-04-04T20:37:02.141Z,7.10
2023-04-04T20:39:41.535Z,7.00
2023-04-04T20:42:32.263Z,7.00
2023-04-04T20:45:13.911Z,7.10
2023-04-04T20:47:48.321Z,7.00
2023-04-04T20:50:21.106Z,7.00
2023-04-04T20:52:58.895Z,6.90
2023-04-04T20:55:31.157Z,6.90
2023-04-04T20:58:09.819Z,6.90
2023-04-04T21:00:43.164Z,6.90
2023-04-04T21:03:26.800Z,6.80
2023-04-04T21:06:11.582Z,6.90
2023-04-04T21:08:41.429Z,6.90
2023-04-04T21:11:08.389Z,7.00
2023-04-04T21:13:42.335Z,6.90
2023-04-04T21:16:11.679Z,6.90
2023-04-04T21:18:40.548Z,6.90
2023-04-04T21:21:09.939Z,6.90
2023-04-04T21:23:39.561Z,6.90
2023-04-04T21:26:11.233Z,6.90
2023-04-04T21:28:42.564Z,6.90
2023-04-04T21:31:14.034Z,6.80
2023-04-04T21:33:49.959Z,6.80
2023-04-04T21:36:28.476Z,6.80
2023-04-04T21:38:56.510Z,6.80
2023-04-04T21:41:27.566Z,6.80
2023-04-04T21:43:55.919Z,6.70
2023-04-04T21:46:27.869Z,6.70
2023-04-04T21:48:55.150Z,6.70
2023-04-04T21:51:22.384Z,6.70
2023-04-04T21:53:50.327Z,6.70
2023-04-04T21:56:18.116Z,6.60
2023-04-04T21:58:45.589Z,6.60
2023-04-04T22:01:12.717Z,6.60
2023-04-04T22:03:40.688Z,6.60
2023-04-04T22:06:07.953Z,6.70
2023-04-04T22:08:34.956Z,6.60
2023-04-04T22:11:03.302Z,6.70
2023-04-04T22:13:34.022Z,6.60
2023-04-04T22:16:04.600Z,6.50
2023-04-04T22:18:33.159Z,6.40
2023-04-04T22:21:03.407Z,6.50
2023-04-04T22:23:37.773Z,6.60
2023-04-04T22:26:29.026Z,6.50
2023-04-04T22:28:56.946Z,6.50
2023-04-04T22:31:23.965Z,6.40
2023-04-04T22:33:51.141Z,6.40
2023-04-04T22:36:18.624Z,6.40
2023-04-04T22:38:45.630Z,6.40
2023-04-04T22:41:12.508Z,6.30
2023-04-04T22:43:39.455Z,6.30
2023-04-04T22:46:06.573Z,6.30
2023-04-04T22:48:41.454Z,6.20
2023-04-04T22:51:08.460Z,6.10
2023-04-04T22:53:35.392Z,6.00
2023-04-04T22:56:02.280Z,6.00
2023-04-04T22:58:29.311Z,6.00
2023-04-04T23:00:56.243Z,6.10
2023-04-04T23:03:23.236Z,6.10
2023-04-04T23:05:50.111Z,6.10
2023-04-04T23:08:17.057Z,6.20
2023-04-04T23:10:43.978Z,6.00
2023-04-04T23:13:11.000Z,5.90
2023-04-04T23:15:38.090Z,5.90
2023-04-04T23:18:05.787Z,6.00
2023-04-04T23:20:33.171Z,6.00
2023-04-04T23:23:00.581Z,6.10
2023-04-04T23:25:27.549Z,6.10
2023-04-04T23:27:54.490Z,6.20
2023-04-04T23:30:23.280Z,6.20
2023-04-04T23:32:50.662Z,6.30
2023-04-04T23:35:17.689Z,6.30
2023-04-04T23:37:44.742Z,6.20
2023-04-04T23:40:12.222Z,6.30
2023-04-04T23:42:39.346Z,6.40
2023-04-04T23:45:07.078Z,6.40
2023-04-04T23:47:34.227Z,6.30
2023-04-04T23:50:01.345Z,6.30
2023-04-04T23:52:28.834Z,6.20
2023-04-04T23:54:55.886Z,6.20
2023-04-04T23:57:22.913Z,6.20
2023-04-04T23:59:49.786Z,6.20
